sensor_id;sensor_type;location;lat;lon;timestamp;temperature;humidity
55064;DHT22;40963;52.168;21.296;2023-04-24T00:02:07;10.50;76.20
55064;DHT22;40963;52.168;21.296;2023-04-24T00:04:36;10.40;76.20
55064;DHT22;40963;52.168;21.296;2023-04-24T00:07:06;10.40;76.50
55064;DHT22;40963;52.168;21.296;2023-04-24T00:09:32;10.40;76.70
55064;DHT22;40963;52.168;21.296;2023-04-24T00:11:58;10.40;77.10
55064;DHT22;40963;52.168;21.296;2023-04-24T00:14:24;10.40;77.20
55064;DHT22;40963;52.168;21.296;2023-04-24T00:16:49;10.30;77.30
55064;DHT22;40963;52.168;21.296;2023-04-24T00:19:15;10.30;77.30
55064;DHT22;40963;52.168;21.296;2023-04-24T00:21:41;10.20;77.30
55064;DHT22;40963;52.168;21.296;2023-04-24T00:24:07;10.10;77.60
55064;DHT22;40963;52.168;21.296;2023-04-24T00:26:34;10.10;78.00
55064;DHT22;40963;52.168;21.296;2023-04-24T00:29:00;10.10;78.20
55064;DHT22;40963;52.168;21.296;2023-04-24T00:31:25;10.10;78.40
55064;DHT22;40963;52.168;21.296;2023-04-24T00:33:51;10.10;78.70
55064;DHT22;40963;52.168;21.296;2023-04-24T00:36:17;10.00;78.80
55064;DHT22;40963;52.168;21.296;2023-04-24T00:38:44;10.10;79.10
55064;DHT22;40963;52.168;21.296;2023-04-24T00:41:10;10.00;79.20
55064;DHT22;40963;52.168;21.296;2023-04-24T00:43:36;10.00;79.20
55064;DHT22;40963;52.168;21.296;2023-04-24T00:46:02;10.00;79.10
55064;DHT22;40963;52.168;21.296;2023-04-24T00:48:27;9.90;79.20
55064;DHT22;40963;52.168;21.296;2023-04-24T00:50:53;9.90;79.70
55064;DHT22;40963;52.168;21.296;2023-04-24T00:53:19;9.70;80.10
55064;DHT22;40963;52.168;21.296;2023-04-24T00:55:45;9.70;80.60
55064;DHT22;40963;52.168;21.296;2023-04-24T00:58:12;9.70;80.90
55064;DHT22;40963;52.168;21.296;2023-04-24T01:00:38;9.70;81.10
55064;DHT22;40963;52.168;21.296;2023-04-24T01:03:04;9.80;81.20
55064;DHT22;40963;52.168;21.296;2023-04-24T01:05:31;9.80;81.20
55064;DHT22;40963;52.168;21.296;2023-04-24T01:07:58;9.80;81.10
55064;DHT22;40963;52.168;21.296;2023-04-24T01:10:26;9.90;80.90
55064;DHT22;40963;52.168;21.296;2023-04-24T01:12:53;9.90;80.70
55064;DHT22;40963;52.168;21.296;2023-04-24T01:15:18;9.90;80.60
55064;DHT22;40963;52.168;21.296;2023-04-24T01:17:44;9.90;80.60
55064;DHT22;40963;52.168;21.296;2023-04-24T01:20:10;9.90;80.70
55064;DHT22;40963;52.168;21.296;2023-04-24T01:22:36;9.90;80.80
55064;DHT22;40963;52.168;21.296;2023-04-24T01:25:02;9.90;80.90
55064;DHT22;40963;52.168;21.296;2023-04-24T01:27:29;9.90;81.10
55064;DHT22;40963;52.168;21.296;2023-04-24T01:29:54;9.90;81.20
55064;DHT22;40963;52.168;21.296;2023-04-24T01:32:20;9.80;81.10
55064;DHT22;40963;52.168;21.296;2023-04-24T01:34:46;9.80;81.10
55064;DHT22;40963;52.168;21.296;2023-04-24T01:37:13;9.70;81.40
55064;DHT22;40963;52.168;21.296;2023-04-24T01:39:38;9.70;81.70
55064;DHT22;40963;52.168;21.296;2023-04-24T01:42:05;9.60;81.80
55064;DHT22;40963;52.168;21.296;2023-04-24T01:44:31;9.60;81.90
55064;DHT22;40963;52.168;21.296;2023-04-24T01:46:57;9.50;82.00
55064;DHT22;40963;52.168;21.296;2023-04-24T01:49:22;9.50;82.10
55064;DHT22;40963;52.168;21.296;2023-04-24T01:51:48;9.50;82.50
55064;DHT22;40963;52.168;21.296;2023-04-24T01:54:14;9.40;82.60
55064;DHT22;40963;52.168;21.296;2023-04-24T01:56:41;9.50;82.90
55064;DHT22;40963;52.168;21.296;2023-04-24T01:59:09;9.50;83.10
55064;DHT22;40963;52.168;21.296;2023-04-24T02:01:36;9.50;83.10
55064;DHT22;40963;52.168;21.296;2023-04-24T02:04:03;9.50;83.10
55064;DHT22;40963;52.168;21.296;2023-04-24T02:06:28;9.50;83.00
55064;DHT22;40963;52.168;21.296;2023-04-24T02:08:54;9.50;83.30
55064;DHT22;40963;52.168;21.296;2023-04-24T02:11:19;9.50;83.60
55064;DHT22;40963;52.168;21.296;2023-04-24T02:13:45;9.50;83.80
55064;DHT22;40963;52.168;21.296;2023-04-24T02:16:10;9.50;84.00
55064;DHT22;40963;52.168;21.296;2023-04-24T02:18:36;9.50;84.00
55064;DHT22;40963;52.168;21.296;2023-04-24T02:21:02;9.50;84.00
55064;DHT22;40963;52.168;21.296;2023-04-24T02:23:27;9.50;84.50
55064;DHT22;40963;52.168;21.296;2023-04-24T02:25:54;9.50;84.50
55064;DHT22;40963;52.168;21.296;2023-04-24T02:28:19;9.50;84.40
55064;DHT22;40963;52.168;21.296;2023-04-24T02:30:45;9.40;84.60
55064;DHT22;40963;52.168;21.296;2023-04-24T02:33:11;9.40;84.80
55064;DHT22;40963;52.168;21.296;2023-04-24T02:35:37;9.30;85.00
55064;DHT22;40963;52.168;21.296;2023-04-24T02:38:03;9.30;85.60
55064;DHT22;40963;52.168;21.296;2023-04-24T02:40:29;9.30;85.90
55064;DHT22;40963;52.168;21.296;2023-04-24T02:42:55;9.30;86.10
55064;DHT22;40963;52.168;21.296;2023-04-24T02:45:20;9.30;86.30
55064;DHT22;40963;52.168;21.296;2023-04-24T02:47:46;9.30;86.70
55064;DHT22;40963;52.168;21.296;2023-04-24T02:50:11;9.30;86.90
55064;DHT22;40963;52.168;21.296;2023-04-24T02:52:37;9.20;87.10
55064;DHT22;40963;52.168;21.296;2023-04-24T02:55:03;9.20;87.30
55064;DHT22;40963;52.168;21.296;2023-04-24T02:57:28;9.20;87.50
55064;DHT22;40963;52.168;21.296;2023-04-24T02:59:54;9.10;87.60
55064;DHT22;40963;52.168;21.296;2023-04-24T03:02:19;9.10;87.90
55064;DHT22;40963;52.168;21.296;2023-04-24T03:04:46;9.10;88.00
55064;DHT22;40963;52.168;21.296;2023-04-24T03:07:13;9.10;88.10
55064;DHT22;40963;52.168;21.296;2023-04-24T03:09:40;9.10;88.50
55064;DHT22;40963;52.168;21.296;2023-04-24T03:12:05;9.00;88.80
55064;DHT22;40963;52.168;21.296;2023-04-24T03:14:31;9.00;89.30
55064;DHT22;40963;52.168;21.296;2023-04-24T03:16:57;8.90;89.60
55064;DHT22;40963;52.168;21.296;2023-04-24T03:19:22;8.90;89.90
55064;DHT22;40963;52.168;21.296;2023-04-24T03:21:48;8.90;90.10
55064;DHT22;40963;52.168;21.296;2023-04-24T03:24:14;8.90;90.20
55064;DHT22;40963;52.168;21.296;2023-04-24T03:26:40;8.90;90.40
55064;DHT22;40963;52.168;21.296;2023-04-24T03:29:06;8.80;90.50
55064;DHT22;40963;52.168;21.296;2023-04-24T03:31:31;8.80;90.70
55064;DHT22;40963;52.168;21.296;2023-04-24T03:33:57;8.80;90.90
55064;DHT22;40963;52.168;21.296;2023-04-24T03:36:22;8.80;91.10
55064;DHT22;40963;52.168;21.296;2023-04-24T03:38:48;8.80;91.30
55064;DHT22;40963;52.168;21.296;2023-04-24T03:41:13;8.70;91.50
55064;DHT22;40963;52.168;21.296;2023-04-24T03:43:39;8.70;91.70
55064;DHT22;40963;52.168;21.296;2023-04-24T03:46:04;8.70;92.10
55064;DHT22;40963;52.168;21.296;2023-04-24T03:48:30;8.60;92.50
55064;DHT22;40963;52.168;21.296;2023-04-24T03:50:56;8.60;92.90
55064;DHT22;40963;52.168;21.296;2023-04-24T03:53:21;8.60;93.40
55064;DHT22;40963;52.168;21.296;2023-04-24T03:55:47;8.70;93.90
55064;DHT22;40963;52.168;21.296;2023-04-24T03:58:13;8.70;94.30
55064;DHT22;40963;52.168;21.296;2023-04-24T04:00:41;8.70;94.50
55064;DHT22;40963;52.168;21.296;2023-04-24T04:03:07;8.70;94.80
55064;DHT22;40963;52.168;21.296;2023-04-24T04:05:32;8.70;95.00
55064;DHT22;40963;52.168;21.296;2023-04-24T04:07:58;8.80;95.30
55064;DHT22;40963;52.168;21.296;2023-04-24T04:10:23;8.80;95.60
55064;DHT22;40963;52.168;21.296;2023-04-24T04:12:49;8.90;95.80
55064;DHT22;40963;52.168;21.296;2023-04-24T04:15:15;8.90;96.00
55064;DHT22;40963;52.168;21.296;2023-04-24T04:17:40;9.00;96.00
55064;DHT22;40963;52.168;21.296;2023-04-24T04:20:07;9.00;96.00
55064;DHT22;40963;52.168;21.296;2023-04-24T04:22:34;9.10;96.00
55064;DHT22;40963;52.168;21.296;2023-04-24T04:25:00;9.10;96.10
55064;DHT22;40963;52.168;21.296;2023-04-24T04:27:26;9.20;96.10
55064;DHT22;40963;52.168;21.296;2023-04-24T04:29:52;9.20;96.20
55064;DHT22;40963;52.168;21.296;2023-04-24T04:32:18;9.30;96.30
55064;DHT22;40963;52.168;21.296;2023-04-24T04:34:43;9.40;96.20
55064;DHT22;40963;52.168;21.296;2023-04-24T04:37:10;9.40;96.30
55064;DHT22;40963;52.168;21.296;2023-04-24T04:39:38;9.50;96.40
55064;DHT22;40963;52.168;21.296;2023-04-24T04:42:03;9.60;96.30
55064;DHT22;40963;52.168;21.296;2023-04-24T04:44:29;9.60;96.10
55064;DHT22;40963;52.168;21.296;2023-04-24T04:46:56;9.70;95.90
55064;DHT22;40963;52.168;21.296;2023-04-24T04:49:22;9.80;95.80
55064;DHT22;40963;52.168;21.296;2023-04-24T04:51:49;9.80;95.50
55064;DHT22;40963;52.168;21.296;2023-04-24T04:54:16;9.90;95.30
55064;DHT22;40963;52.168;21.296;2023-04-24T04:56:42;9.90;95.30
55064;DHT22;40963;52.168;21.296;2023-04-24T04:59:07;10.00;95.20
55064;DHT22;40963;52.168;21.296;2023-04-24T05:01:33;10.10;95.10
55064;DHT22;40963;52.168;21.296;2023-04-24T05:03:58;10.20;95.00
55064;DHT22;40963;52.168;21.296;2023-04-24T05:06:24;10.30;94.90
55064;DHT22;40963;52.168;21.296;2023-04-24T05:08:50;10.40;94.50
55064;DHT22;40963;52.168;21.296;2023-04-24T05:11:16;10.50;94.10
55064;DHT22;40963;52.168;21.296;2023-04-24T05:13:42;10.60;93.70
55064;DHT22;40963;52.168;21.296;2023-04-24T05:16:07;10.70;93.30
55064;DHT22;40963;52.168;21.296;2023-04-24T05:18:33;10.90;92.90
55064;DHT22;40963;52.168;21.296;2023-04-24T05:20:58;11.00;92.70
55064;DHT22;40963;52.168;21.296;2023-04-24T05:23:24;11.20;92.30
55064;DHT22;40963;52.168;21.296;2023-04-24T05:25:49;11.40;91.80
55064;DHT22;40963;52.168;21.296;2023-04-24T05:28:15;11.50;91.20
55064;DHT22;40963;52.168;21.296;2023-04-24T05:30:41;11.60;90.60
55064;DHT22;40963;52.168;21.296;2023-04-24T05:33:07;11.80;90.10
55064;DHT22;40963;52.168;21.296;2023-04-24T05:35:33;11.90;89.20
55064;DHT22;40963;52.168;21.296;2023-04-24T05:37:59;11.90;88.10
55064;DHT22;40963;52.168;21.296;2023-04-24T05:40:25;12.00;87.40
55064;DHT22;40963;52.168;21.296;2023-04-24T05:42:50;12.20;87.10
55064;DHT22;40963;52.168;21.296;2023-04-24T05:45:16;12.20;86.20
55064;DHT22;40963;52.168;21.296;2023-04-24T05:47:42;12.30;85.20
55064;DHT22;40963;52.168;21.296;2023-04-24T05:50:12;12.30;84.50
55064;DHT22;40963;52.168;21.296;2023-04-24T05:52:37;12.40;83.90
55064;DHT22;40963;52.168;21.296;2023-04-24T05:55:03;12.40;83.50
55064;DHT22;40963;52.168;21.296;2023-04-24T05:57:29;12.50;83.20
55064;DHT22;40963;52.168;21.296;2023-04-24T05:59:55;12.50;83.00
55064;DHT22;40963;52.168;21.296;2023-04-24T06:02:21;12.50;82.90
55064;DHT22;40963;52.168;21.296;2023-04-24T06:04:47;12.60;82.70
55064;DHT22;40963;52.168;21.296;2023-04-24T06:07:13;12.60;82.50
55064;DHT22;40963;52.168;21.296;2023-04-24T06:09:38;12.70;82.30
55064;DHT22;40963;52.168;21.296;2023-04-24T06:12:04;12.70;82.20
55064;DHT22;40963;52.168;21.296;2023-04-24T06:14:29;12.70;82.50
55064;DHT22;40963;52.168;21.296;2023-04-24T06:16:55;12.80;83.40
55064;DHT22;40963;52.168;21.296;2023-04-24T06:19:20;12.80;82.80
55064;DHT22;40963;52.168;21.296;2023-04-24T06:21:46;12.90;82.90
55064;DHT22;40963;52.168;21.296;2023-04-24T06:24:14;12.90;83.30
55064;DHT22;40963;52.168;21.296;2023-04-24T06:26:41;13.00;83.60
55064;DHT22;40963;52.168;21.296;2023-04-24T06:29:06;13.10;84.10
55064;DHT22;40963;52.168;21.296;2023-04-24T06:31:32;13.30;84.40
55064;DHT22;40963;52.168;21.296;2023-04-24T06:34:02;13.50;84.10
55064;DHT22;40963;52.168;21.296;2023-04-24T06:36:28;13.60;83.10
55064;DHT22;40963;52.168;21.296;2023-04-24T06:38:54;13.70;83.10
55064;DHT22;40963;52.168;21.296;2023-04-24T06:41:19;13.90;82.30
55064;DHT22;40963;52.168;21.296;2023-04-24T06:43:45;14.10;81.20
55064;DHT22;40963;52.168;21.296;2023-04-24T06:46:11;14.30;80.40
55064;DHT22;40963;52.168;21.296;2023-04-24T06:48:38;14.50;79.90
55064;DHT22;40963;52.168;21.296;2023-04-24T06:51:04;14.70;79.20
55064;DHT22;40963;52.168;21.296;2023-04-24T06:53:30;14.90;78.70
55064;DHT22;40963;52.168;21.296;2023-04-24T06:55:56;15.10;77.90
55064;DHT22;40963;52.168;21.296;2023-04-24T06:58:21;15.40;77.00
55064;DHT22;40963;52.168;21.296;2023-04-24T07:00:47;15.60;75.90
55064;DHT22;40963;52.168;21.296;2023-04-24T07:03:12;15.80;75.00
55064;DHT22;40963;52.168;21.296;2023-04-24T07:05:38;16.00;74.10
55064;DHT22;40963;52.168;21.296;2023-04-24T07:08:04;16.20;72.70
55064;DHT22;40963;52.168;21.296;2023-04-24T07:10:29;16.40;72.60
55064;DHT22;40963;52.168;21.296;2023-04-24T07:12:55;16.50;71.50
55064;DHT22;40963;52.168;21.296;2023-04-24T07:15:24;16.70;70.90
55064;DHT22;40963;52.168;21.296;2023-04-24T07:17:50;16.90;70.40
55064;DHT22;40963;52.168;21.296;2023-04-24T07:20:15;17.10;69.30
55064;DHT22;40963;52.168;21.296;2023-04-24T07:22:41;17.40;68.80
55064;DHT22;40963;52.168;21.296;2023-04-24T07:25:07;17.60;68.10
55064;DHT22;40963;52.168;21.296;2023-04-24T07:27:33;17.80;66.90
55064;DHT22;40963;52.168;21.296;2023-04-24T07:29:59;18.00;66.20
55064;DHT22;40963;52.168;21.296;2023-04-24T07:32:25;18.20;65.60
55064;DHT22;40963;52.168;21.296;2023-04-24T07:34:50;18.30;64.00
55064;DHT22;40963;52.168;21.296;2023-04-24T07:37:16;18.40;62.80
55064;DHT22;40963;52.168;21.296;2023-04-24T07:39:42;18.40;62.30
55064;DHT22;40963;52.168;21.296;2023-04-24T07:42:07;18.50;61.80
55064;DHT22;40963;52.168;21.296;2023-04-24T07:44:33;18.70;61.30
55064;DHT22;40963;52.168;21.296;2023-04-24T07:46:58;18.80;61.00
55064;DHT22;40963;52.168;21.296;2023-04-24T07:49:24;18.90;60.00
55064;DHT22;40963;52.168;21.296;2023-04-24T07:51:50;19.00;59.70
55064;DHT22;40963;52.168;21.296;2023-04-24T07:54:15;19.00;59.70
55064;DHT22;40963;52.168;21.296;2023-04-24T07:56:43;19.20;59.70
55064;DHT22;40963;52.168;21.296;2023-04-24T07:59:09;19.30;59.40
55064;DHT22;40963;52.168;21.296;2023-04-24T08:01:36;19.50;58.80
55064;DHT22;40963;52.168;21.296;2023-04-24T08:04:01;19.60;58.40
55064;DHT22;40963;52.168;21.296;2023-04-24T08:06:27;19.80;57.70
55064;DHT22;40963;52.168;21.296;2023-04-24T08:08:57;19.90;56.70
55064;DHT22;40963;52.168;21.296;2023-04-24T08:11:23;20.00;56.80
55064;DHT22;40963;52.168;21.296;2023-04-24T08:13:49;20.20;56.20
55064;DHT22;40963;52.168;21.296;2023-04-24T08:16:14;20.20;55.10
55064;DHT22;40963;52.168;21.296;2023-04-24T08:18:40;20.20;54.80
55064;DHT22;40963;52.168;21.296;2023-04-24T08:21:06;20.30;55.00
55064;DHT22;40963;52.168;21.296;2023-04-24T08:23:32;20.50;55.20
55064;DHT22;40963;52.168;21.296;2023-04-24T08:25:57;20.60;55.10
55064;DHT22;40963;52.168;21.296;2023-04-24T08:28:23;20.80;54.20
55064;DHT22;40963;52.168;21.296;2023-04-24T08:30:49;20.90;53.60
55064;DHT22;40963;52.168;21.296;2023-04-24T08:33:23;21.10;53.60
55064;DHT22;40963;52.168;21.296;2023-04-24T08:35:48;21.20;52.90
55064;DHT22;40963;52.168;21.296;2023-04-24T08:38:14;21.40;53.40
55064;DHT22;40963;52.168;21.296;2023-04-24T08:40:40;21.40;51.80
55064;DHT22;40963;52.168;21.296;2023-04-24T08:43:06;21.60;51.20
55064;DHT22;40963;52.168;21.296;2023-04-24T08:45:32;21.70;50.80
55064;DHT22;40963;52.168;21.296;2023-04-24T08:47:58;21.90;50.30
55064;DHT22;40963;52.168;21.296;2023-04-24T08:50:25;22.00;50.30
55064;DHT22;40963;52.168;21.296;2023-04-24T08:52:51;22.10;50.10
55064;DHT22;40963;52.168;21.296;2023-04-24T08:55:19;22.20;49.70
55064;DHT22;40963;52.168;21.296;2023-04-24T08:57:50;22.30;49.40
55064;DHT22;40963;52.168;21.296;2023-04-24T09:00:16;22.50;49.20
55064;DHT22;40963;52.168;21.296;2023-04-24T09:02:42;22.60;48.50
55064;DHT22;40963;52.168;21.296;2023-04-24T09:05:12;22.60;48.40
55064;DHT22;40963;52.168;21.296;2023-04-24T09:07:39;22.80;48.50
55064;DHT22;40963;52.168;21.296;2023-04-24T09:10:07;23.00;48.10
55064;DHT22;40963;52.168;21.296;2023-04-24T09:12:34;22.90;47.20
55064;DHT22;40963;52.168;21.296;2023-04-24T09:15:01;22.90;47.10
55064;DHT22;40963;52.168;21.296;2023-04-24T09:17:30;22.80;47.00
55064;DHT22;40963;52.168;21.296;2023-04-24T09:19:55;22.70;46.80
55064;DHT22;40963;52.168;21.296;2023-04-24T09:22:21;22.50;46.90
55064;DHT22;40963;52.168;21.296;2023-04-24T09:24:47;22.50;47.00
55064;DHT22;40963;52.168;21.296;2023-04-24T09:27:13;22.60;47.50
55064;DHT22;40963;52.168;21.296;2023-04-24T09:29:56;22.60;47.30
55064;DHT22;40963;52.168;21.296;2023-04-24T09:32:22;22.70;46.70
55064;DHT22;40963;52.168;21.296;2023-04-24T09:35:07;22.90;46.20
55064;DHT22;40963;52.168;21.296;2023-04-24T09:37:38;23.00;45.90
55064;DHT22;40963;52.168;21.296;2023-04-24T09:40:16;23.10;45.90
55064;DHT22;40963;52.168;21.296;2023-04-24T09:42:53;23.20;45.60
55064;DHT22;40963;52.168;21.296;2023-04-24T09:45:20;23.20;44.80
55064;DHT22;40963;52.168;21.296;2023-04-24T09:47:45;23.30;45.30
55064;DHT22;40963;52.168;21.296;2023-04-24T09:50:15;23.30;45.20
55064;DHT22;40963;52.168;21.296;2023-04-24T09:52:45;23.20;45.00
55064;DHT22;40963;52.168;21.296;2023-04-24T09:55:19;23.30;45.60
55064;DHT22;40963;52.168;21.296;2023-04-24T09:57:59;23.30;46.00
55064;DHT22;40963;52.168;21.296;2023-04-24T10:00:32;23.40;46.10
55064;DHT22;40963;52.168;21.296;2023-04-24T10:03:02;23.50;46.30
55064;DHT22;40963;52.168;21.296;2023-04-24T10:05:34;23.50;46.10
55064;DHT22;40963;52.168;21.296;2023-04-24T10:10:31;23.60;46.10
55064;DHT22;40963;52.168;21.296;2023-04-24T10:12:57;23.80;46.30
55064;DHT22;40963;52.168;21.296;2023-04-24T10:15:22;23.80;46.50
55064;DHT22;40963;52.168;21.296;2023-04-24T10:17:50;23.90;46.80
55064;DHT22;40963;52.168;21.296;2023-04-24T10:20:23;24.00;46.80
55064;DHT22;40963;52.168;21.296;2023-04-24T10:22:51;24.00;46.50
55064;DHT22;40963;52.168;21.296;2023-04-24T10:25:22;23.90;46.10
55064;DHT22;40963;52.168;21.296;2023-04-24T10:27:49;23.90;46.50
55064;DHT22;40963;52.168;21.296;2023-04-24T10:30:15;23.90;47.00
55064;DHT22;40963;52.168;21.296;2023-04-24T10:32:41;24.00;47.00
55064;DHT22;40963;52.168;21.296;2023-04-24T10:35:08;24.00;46.90
55064;DHT22;40963;52.168;21.296;2023-04-24T10:37:38;24.00;46.20
55064;DHT22;40963;52.168;21.296;2023-04-24T10:40:06;23.90;46.30
55064;DHT22;40963;52.168;21.296;2023-04-24T10:42:33;23.90;46.90
55064;DHT22;40963;52.168;21.296;2023-04-24T10:44:59;24.00;47.10
55064;DHT22;40963;52.168;21.296;2023-04-24T10:47:27;24.10;46.50
55064;DHT22;40963;52.168;21.296;2023-04-24T10:49:53;24.10;46.00
55064;DHT22;40963;52.168;21.296;2023-04-24T10:52:19;24.20;45.80
55064;DHT22;40963;52.168;21.296;2023-04-24T10:54:47;24.20;45.30
55064;DHT22;40963;52.168;21.296;2023-04-24T10:59:45;24.40;45.60
55064;DHT22;40963;52.168;21.296;2023-04-24T11:02:14;24.40;45.70
55064;DHT22;40963;52.168;21.296;2023-04-24T11:04:41;24.50;45.60
55064;DHT22;40963;52.168;21.296;2023-04-24T11:07:09;24.50;45.40
55064;DHT22;40963;52.168;21.296;2023-04-24T11:09:35;24.50;45.20
55064;DHT22;40963;52.168;21.296;2023-04-24T11:12:07;24.50;45.10
55064;DHT22;40963;52.168;21.296;2023-04-24T11:17:33;24.60;44.20
55064;DHT22;40963;52.168;21.296;2023-04-24T11:20:07;24.70;44.20
55064;DHT22;40963;52.168;21.296;2023-04-24T11:22:34;24.70;43.80
55064;DHT22;40963;52.168;21.296;2023-04-24T11:25:04;24.70;43.60
55064;DHT22;40963;52.168;21.296;2023-04-24T11:27:32;24.60;43.50
55064;DHT22;40963;52.168;21.296;2023-04-24T11:30:03;24.50;43.60
55064;DHT22;40963;52.168;21.296;2023-04-24T11:32:40;24.60;43.20
55064;DHT22;40963;52.168;21.296;2023-04-24T11:35:20;24.60;42.10
55064;DHT22;40963;52.168;21.296;2023-04-24T11:37:49;24.60;41.30
55064;DHT22;40963;52.168;21.296;2023-04-24T11:40:16;24.50;41.20
55064;DHT22;40963;52.168;21.296;2023-04-24T11:42:47;24.60;41.60
55064;DHT22;40963;52.168;21.296;2023-04-24T11:45:22;24.60;41.00
55064;DHT22;40963;52.168;21.296;2023-04-24T11:47:48;24.60;40.20
55064;DHT22;40963;52.168;21.296;2023-04-24T11:50:16;24.70;39.80
55064;DHT22;40963;52.168;21.296;2023-04-24T11:52:43;24.60;39.40
55064;DHT22;40963;52.168;21.296;2023-04-24T11:55:29;24.70;39.70
55064;DHT22;40963;52.168;21.296;2023-04-24T11:57:57;24.60;39.60
55064;DHT22;40963;52.168;21.296;2023-04-24T12:00:26;24.40;39.50
55064;DHT22;40963;52.168;21.296;2023-04-24T12:03:06;24.20;39.80
55064;DHT22;40963;52.168;21.296;2023-04-24T12:05:32;24.20;40.50
55064;DHT22;40963;52.168;21.296;2023-04-24T12:07:58;24.30;40.80
55064;DHT22;40963;52.168;21.296;2023-04-24T12:10:26;24.40;40.20
55064;DHT22;40963;52.168;21.296;2023-04-24T12:12:53;24.40;39.20
55064;DHT22;40963;52.168;21.296;2023-04-24T12:15:21;24.50;38.60
55064;DHT22;40963;52.168;21.296;2023-04-24T12:17:47;24.60;38.20
55064;DHT22;40963;52.168;21.296;2023-04-24T12:20:14;24.70;38.20
55064;DHT22;40963;52.168;21.296;2023-04-24T12:22:53;24.80;38.20
55064;DHT22;40963;52.168;21.296;2023-04-24T12:25:30;24.90;38.50
55064;DHT22;40963;52.168;21.296;2023-04-24T12:30:33;25.00;39.00
55064;DHT22;40963;52.168;21.296;2023-04-24T12:33:03;25.00;38.70
55064;DHT22;40963;52.168;21.296;2023-04-24T12:35:31;25.00;37.90
55064;DHT22;40963;52.168;21.296;2023-04-24T12:38:06;25.00;37.60
55064;DHT22;40963;52.168;21.296;2023-04-24T12:40:32;25.10;37.90
55064;DHT22;40963;52.168;21.296;2023-04-24T12:42:58;25.20;38.20
55064;DHT22;40963;52.168;21.296;2023-04-24T12:45:23;25.20;38.60
55064;DHT22;40963;52.168;21.296;2023-04-24T12:47:50;25.10;38.30
55064;DHT22;40963;52.168;21.296;2023-04-24T12:50:16;24.90;38.30
55064;DHT22;40963;52.168;21.296;2023-04-24T12:52:42;24.70;38.50
55064;DHT22;40963;52.168;21.296;2023-04-24T12:55:08;24.50;38.80
55064;DHT22;40963;52.168;21.296;2023-04-24T12:57:35;24.40;39.10
55064;DHT22;40963;52.168;21.296;2023-04-24T13:00:02;24.20;39.80
55064;DHT22;40963;52.168;21.296;2023-04-24T13:02:29;24.00;40.70
55064;DHT22;40963;52.168;21.296;2023-04-24T13:04:59;23.70;42.90
55064;DHT22;40963;52.168;21.296;2023-04-24T13:07:25;23.30;45.80
55064;DHT22;40963;52.168;21.296;2023-04-24T13:09:52;22.90;48.00
55064;DHT22;40963;52.168;21.296;2023-04-24T13:12:18;22.60;49.50
55064;DHT22;40963;52.168;21.296;2023-04-24T13:14:44;22.20;50.20
55064;DHT22;40963;52.168;21.296;2023-04-24T13:17:10;21.80;50.10
55064;DHT22;40963;52.168;21.296;2023-04-24T13:19:38;21.50;50.70
55064;DHT22;40963;52.168;21.296;2023-04-24T13:22:04;21.30;52.20
55064;DHT22;40963;52.168;21.296;2023-04-24T13:24:30;21.30;53.20
55064;DHT22;40963;52.168;21.296;2023-04-24T13:26:57;21.30;53.20
55064;DHT22;40963;52.168;21.296;2023-04-24T13:29:23;21.30;52.40
55064;DHT22;40963;52.168;21.296;2023-04-24T13:31:50;21.10;51.60
55064;DHT22;40963;52.168;21.296;2023-04-24T13:34:17;21.00;51.30
55064;DHT22;40963;52.168;21.296;2023-04-24T13:36:43;20.90;51.00
55064;DHT22;40963;52.168;21.296;2023-04-24T13:39:09;20.80;50.60
55064;DHT22;40963;52.168;21.296;2023-04-24T13:41:34;20.70;49.50
55064;DHT22;40963;52.168;21.296;2023-04-24T13:44:02;20.50;49.20
55064;DHT22;40963;52.168;21.296;2023-04-24T13:46:27;20.30;49.50
55064;DHT22;40963;52.168;21.296;2023-04-24T13:48:53;20.20;49.30
55064;DHT22;40963;52.168;21.296;2023-04-24T13:51:18;20.00;49.10
55064;DHT22;40963;52.168;21.296;2023-04-24T13:53:44;19.90;49.10
55064;DHT22;40963;52.168;21.296;2023-04-24T13:56:10;19.80;48.80
55064;DHT22;40963;52.168;21.296;2023-04-24T13:58:36;19.80;48.90
55064;DHT22;40963;52.168;21.296;2023-04-24T14:01:02;19.70;48.50
55064;DHT22;40963;52.168;21.296;2023-04-24T14:03:28;19.70;48.40
55064;DHT22;40963;52.168;21.296;2023-04-24T14:05:54;19.70;47.60
55064;DHT22;40963;52.168;21.296;2023-04-24T14:08:20;19.70;47.00
55064;DHT22;40963;52.168;21.296;2023-04-24T14:10:45;19.80;46.60
55064;DHT22;40963;52.168;21.296;2023-04-24T14:13:11;19.90;46.10
55064;DHT22;40963;52.168;21.296;2023-04-24T14:15:37;19.90;45.90
55064;DHT22;40963;52.168;21.296;2023-04-24T14:18:03;20.10;46.20
55064;DHT22;40963;52.168;21.296;2023-04-24T14:20:29;20.10;45.80
55064;DHT22;40963;52.168;21.296;2023-04-24T14:22:54;20.20;45.80
55064;DHT22;40963;52.168;21.296;2023-04-24T14:25:20;20.30;45.70
55064;DHT22;40963;52.168;21.296;2023-04-24T14:27:47;20.30;45.40
55064;DHT22;40963;52.168;21.296;2023-04-24T14:30:13;20.30;45.50
55064;DHT22;40963;52.168;21.296;2023-04-24T14:32:39;20.40;45.70
55064;DHT22;40963;52.168;21.296;2023-04-24T14:35:06;20.40;45.80
55064;DHT22;40963;52.168;21.296;2023-04-24T14:37:32;20.50;46.30
55064;DHT22;40963;52.168;21.296;2023-04-24T14:39:58;20.60;46.40
55064;DHT22;40963;52.168;21.296;2023-04-24T14:42:23;20.60;46.40
55064;DHT22;40963;52.168;21.296;2023-04-24T14:44:49;20.70;46.50
55064;DHT22;40963;52.168;21.296;2023-04-24T14:47:14;20.90;46.50
55064;DHT22;40963;52.168;21.296;2023-04-24T14:49:43;21.10;46.50
55064;DHT22;40963;52.168;21.296;2023-04-24T14:52:09;21.20;45.90
55064;DHT22;40963;52.168;21.296;2023-04-24T14:54:35;21.30;45.60
55064;DHT22;40963;52.168;21.296;2023-04-24T14:57:00;21.30;45.20
55064;DHT22;40963;52.168;21.296;2023-04-24T14:59:27;21.40;44.80
55064;DHT22;40963;52.168;21.296;2023-04-24T15:01:53;21.50;44.70
55064;DHT22;40963;52.168;21.296;2023-04-24T15:04:26;21.70;44.60
55064;DHT22;40963;52.168;21.296;2023-04-24T15:06:54;21.70;44.10
55064;DHT22;40963;52.168;21.296;2023-04-24T15:09:21;21.70;43.80
55064;DHT22;40963;52.168;21.296;2023-04-24T15:11:47;21.70;43.90
55064;DHT22;40963;52.168;21.296;2023-04-24T15:14:13;21.80;44.10
55064;DHT22;40963;52.168;21.296;2023-04-24T15:16:38;21.80;44.00
55064;DHT22;40963;52.168;21.296;2023-04-24T15:19:04;21.90;44.10
55064;DHT22;40963;52.168;21.296;2023-04-24T15:21:30;22.00;44.20
55064;DHT22;40963;52.168;21.296;2023-04-24T15:23:56;22.00;43.70
55064;DHT22;40963;52.168;21.296;2023-04-24T15:26:23;22.10;43.40
55064;DHT22;40963;52.168;21.296;2023-04-24T15:28:49;22.10;43.00